CheckWX is a tool to help pilots better visualize weather data.  It is not intended as a substitute for an official pre-flight weather briefing.

18:14:06 UTC

KSUU TAF
Travis AFB Airport
Fairfield, California, USA
TAF KSUU 241100Z 2411/2517 23006KT 9999 SKC QNH2987INS BECMG 2417/2418 36012G18KT 9999 SKC QNH2992INS BECMG 2420/2421 24012KT 9999 SKC QNH2985INS TX31/2422Z TN14/2414Z

Apr-24@
11:00 UTC

Apr-24 @ 11:00 UTC

Apr-24@
17:00 UTC

Apr-24 @ 17:00 UTC

TAF KSUU 241100Z 2411/2517 23006KT 9999 SKC QNH2987INS

Expired

Wind
  • 230° at 6 KTS
Cloud Levels
  • Clear skies

Apr-24@
17:00 UTC

Apr-24 @ 17:00 UTC

Apr-24@
20:00 UTC

Apr-24 @ 20:00 UTC

BECMG 2417/2418 36012G18KT 9999 SKC QNH2992INS

Becoming

Becoming Conditions expected by Wed, Apr 24, 2019 @ 18:00 UTC

Wind
  • 360° at 12 KTS
  • {Gusting to 18 KTS
Cloud Levels
  • Clear skies

Apr-24@
20:00 UTC

Apr-24 @ 20:00 UTC

Apr-25@
17:00 UTC

Apr-25 @ 17:00 UTC

BECMG 2420/2421 24012KT 9999 SKC QNH2985INS TX31/2422Z TN14/2414Z

Becoming

Becoming Conditions expected by Wed, Apr 24, 2019 @ 21:00 UTC

Wind
  • 240° at 12 KTS
Cloud Levels
  • Clear skies